Terminal Aerodrome Forecast
Issued by NWS

Home | Current Version | Previous Version | Text Only | Print | Product List | Glossary On
Versions: 1 2 3 4 5 6 7 8 9 10 11 12 13 14 15 16
000
FTUS44 KTSA 191144 AAA
TAFXNA
TAF AMD
KXNA 191144Z 1912/2012 17004KT 1SM BR SCT002 SCT250
      TEMPO 1912/1914 1/2SM FG VV002
     FM191400 15005KT 3SM BR BKN007
     FM191600 17010KT P6SM BKN015
     FM191800 16010KT P6SM SCT025 SCT250
     FM200300 16011KT P6SM BKN020 PROB30 2009/2012 4SM -TSRA
      OVC015CB=

USA.gov is the U.S. government's official web portal to all federal, state and local government web resources and services.